Terminal Aerodrome Forecast
Issued by NWS Amarillo, TX

Home | Current Version | Previous Version | Text Only | Print | Product List | Glossary On
Versions: 1 2 3 4 5 6 7 8 9 10 11 12 13 14 15 16 17 18 19
558
FTUS44 KAMA 252357 CCA
TAFAMA
TAF COR
KAMA 252357Z 2600/2624 35011KT P6SM SKC
     FM260100 VRB04KT P6SM SKC
     FM260500 18008KT P6SM SKC
     FM261400 24011KT P6SM SCT200
     FM261600 36022G32KT P6SM BKN200=

USA.gov is the U.S. government's official web portal to all federal, state and local government web resources and services.